Etusivu
METAR-TAF:

METAR-TAF

Lentoasemat :

Ponta Delgada, Azorit, Portugali

Leveyspiiri: 37-44N, Pituuspiiri: 025-42W, korkeus merenpinnasta: 71 m

Tämänhetkinen sää

Tämä raportti tehtiin 42 minuuttia sitten, kello 15.00 UTC
Tuuli 12 kn lännestä
Lämpötila 22°C
Kosteus 69%
Ilmanpaine 1023 hPa
Näkyvyys 10 km tai enemmän
Muutamia pilviä 2500 ft:n korkeudessa

METAR: LPPD 251500Z 27012KT 9999 FEW025 22/16 Q1023

Aika: 15:42 (15:42 UTC)


TAF: puuttuu

Säähavainnot ja -ennusteet yli 4000 lentoasemalta (METAR- ja TAF-raportit).

Käytössä olevat sääasemat on merkitty karttaan keltaisilla ja punaisilla pisteillä.

Aseta hiiri pisteen päälle nähdäksesi sääaseman nimen.

Klikkaa sitten nähdäksesi säähavainnot ja -ennusteet.

Kartan vaihtaminen: klikkaa mustalla rastilla varustettuja vihreitä pisteitä, niin voit zoomata sisään; viivalla varustettua vihreää pistettä, niin voit zoomata ulos tai vihreitä nuolia, niin pääset viereisille kartoille.


METAR-TAF: